JPA weather

Public forecast

Using degrees Celsius for public forecast. Weather courtesy of forecast.io.

Current aviation weather report (METAR) for Presidente Castro Pinto International Airport

Retrieved 2020/08/12 12:00 UTC (5 minutes ago):

SBJP 121200Z 13011KT 9999 FEW021 FEW030TCU 26/22 Q1016

Aviation forecast (TAF) for Presidente Castro Pinto International Airport

Forecast is more than 6 hours old.

Retrieved 2020/08/12 06:00 UTC (6 hours ago):

TAF SBJP 120300Z 1206/1306 18004KT 9999 SCT015 TN24/1206Z TX31/1215Z BECMG 1212/1214 12013KT BKN030 BECMG 1218/1220 13010KT FEW025 BECMG 1222/1224 16005KT SCT020 BECMG 1302/1304 19006KT SCT015 RMK PEQ